Time;durP1;ratioP1;P1;durP2;ratioP2;P2;SDS_P1;SDS_P2;PMS_P1;PMS_P2;Temp;Humidity;BMP_temperature;BMP_pressure;BME280_temperature;BME280_humidity;BME280_pressure;Samples;Min_cycle;Max_cycle;Signal;HPM_P1;HPM_P2
2023/09/30 00:02:26;;;;;;;7.40;3.13;;;19.30;86.10;;;;;;5073425;28;20057;-28
2023/09/30 00:04:53;;;;;;;5.82;2.90;;;;;;;;;;5073091;28;20124;-29
2023/09/30 00:07:21;;;;;;;6.68;3.10;;;;;;;;;;5073293;28;20425;-28
2023/09/30 00:09:47;;;;;;;5.38;2.78;;;19.90;86.30;;;;;;5073149;28;20055;-28
2023/09/30 00:12:16;;;;;;;6.25;2.92;;;19.30;86.40;;;;;;5073412;28;20079;-28
2023/09/30 00:14:42;;;;;;;7.85;2.97;;;19.60;82.20;;;;;;5072829;28;20563;-28
2023/09/30 00:17:09;;;;;;;6.00;2.90;;;;;;;;;;5072454;28;20091;-30
2023/09/30 00:19:37;;;;;;;5.57;2.72;;;20.70;79.40;;;;;;5073113;28;20123;-28
2023/09/30 00:22:04;;;;;;;6.63;3.10;;;;;;;;;;5072675;28;20564;-28
2023/09/30 00:24:31;;;;;;;5.75;2.78;;;19.90;68.60;;;;;;5073090;28;20106;-28
2023/09/30 00:26:58;;;;;;;6.13;2.97;;;;;;;;;;5072760;28;20123;-30
2023/09/30 00:29:26;;;;;;;5.53;2.72;;;19.80;79.70;;;;;;5072702;28;20056;-28
2023/09/30 00:31:53;;;;;;;4.85;2.50;;;20.40;86.70;;;;;;5072787;28;20490;-28
2023/09/30 00:34:20;;;;;;;6.72;2.75;;;;;;;;;;5072731;28;20131;-29
2023/09/30 00:36:47;;;;;;;5.95;2.78;;;;;;;;;;5072161;28;20128;-28
2023/09/30 00:39:14;;;;;;;4.90;2.90;;;19.70;81.60;;;;;;5072556;28;20045;-28
2023/09/30 00:41:41;;;;;;;5.75;2.80;;;20.10;86.50;;;;;;5072640;28;20128;-28
2023/09/30 00:44:08;;;;;;;6.30;2.58;;;;;;;;;;5072470;28;20140;-28
2023/09/30 00:46:37;;;;;;;5.43;2.38;;;19.90;68.90;;;;;;5072330;28;20045;-28
2023/09/30 00:49:05;;;;;;;4.80;2.63;;;;;;;;;;5072762;28;20080;-29
2023/09/30 00:51:32;;;;;;;4.72;2.60;;;19.30;86.10;;;;;;5072293;28;20470;-29
2023/09/30 00:53:59;;;;;;;7.43;2.60;;;19.40;77.30;;;;;;5072340;28;20524;-28
2023/09/30 00:56:27;;;;;;;5.38;2.40;;;19.70;68.50;;;;;;5072150;28;20131;-30
2023/09/30 00:58:54;;;;;;;6.40;2.63;;;19.70;86.20;;;;;;5072385;28;20049;-28
2023/09/30 01:01:21;;;;;;;3.72;2.25;;;19.80;81.60;;;;;;5072170;28;20494;-28
2023/09/30 01:03:49;;;;;;;6.30;2.58;;;19.40;86.50;;;;;;5072348;28;20127;-29
2023/09/30 01:06:16;;;;;;;5.43;2.38;;;19.50;86.20;;;;;;5071983;28;20131;-28
2023/09/30 01:08:42;;;;;;;4.78;2.38;;;19.10;85.90;;;;;;5071853;28;20131;-29
2023/09/30 01:11:09;;;;;;;4.95;2.95;;;;;;;;;;5071887;28;20136;-28
2023/09/30 01:13:36;;;;;;;5.10;2.60;;;19.80;73.20;;;;;;5072022;28;20386;-28
2023/09/30 01:16:06;;;;;;;5.88;2.53;;;19.90;71.10;;;;;;5071680;28;20131;-29
2023/09/30 01:18:33;;;;;;;4.57;2.60;;;19.00;74.10;;;;;;5071881;28;20128;-28
2023/09/30 01:21:03;;;;;;;5.38;2.40;;;19.40;86.40;;;;;;5072035;28;20537;-29
2023/09/30 01:23:31;;;;;;;6.40;2.30;;;19.60;86.50;;;;;;5071859;28;20128;-29
2023/09/30 01:25:59;;;;;;;5.32;2.50;;;19.70;86.60;;;;;;5072102;28;20103;-30
2023/09/30 01:28:26;;;;;;;5.85;2.50;;;;;;;;;;5070683;28;20053;-29
2023/09/30 01:30:53;;;;;;;4.25;2.47;;;18.60;86.00;;;;;;5072101;28;20056;-28
2023/09/30 01:33:20;;;;;;;3.97;2.05;;;19.40;74.00;;;;;;5071828;28;20079;-28
2023/09/30 01:35:46;;;;;;;4.75;2.45;;;19.10;85.90;;;;;;5071766;28;20076;-29
2023/09/30 01:38:13;;;;;;;5.05;2.42;;;19.80;86.30;;;;;;5071030;28;20128;-28
2023/09/30 01:40:42;;;;;;;6.93;2.20;;;18.80;68.30;;;;;;5071847;28;20472;-29
2023/09/30 01:43:08;;;;;;;4.20;2.15;;;20.40;86.50;;;;;;5071883;28;20063;-29
2023/09/30 01:45:36;;;;;;;3.55;2.10;;;;;;;;;;5071749;28;20131;-27
2023/09/30 01:48:03;;;;;;;4.50;2.20;;;19.40;86.00;;;;;;5071661;28;20512;-29
2023/09/30 01:50:30;;;;;;;3.45;2.15;;;;;;;;;;5071426;28;20045;-28
2023/09/30 01:52:57;;;;;;;3.50;2.20;;;20.30;86.50;;;;;;5071633;28;20132;-30
2023/09/30 01:55:23;;;;;;;6.07;2.25;;;19.50;86.20;;;;;;5071422;28;20045;-28
2023/09/30 01:57:51;;;;;;;5.25;2.38;;;18.80;68.30;;;;;;5071760;28;20469;-29
2023/09/30 02:00:18;;;;;;;4.93;2.42;;;19.70;68.40;;;;;;5071698;28;20084;-29
2023/09/30 02:02:45;;;;;;;4.47;2.30;;;20.20;86.80;;;;;;5071530;28;20084;-28
2023/09/30 02:05:13;;;;;;;3.90;2.30;;;;;;;;;;5070995;28;20424;-30
2023/09/30 02:07:40;;;;;;;4.57;2.33;;;20.70;86.80;;;;;;5071435;28;20472;-28
2023/09/30 02:10:08;;;;;;;4.32;2.40;;;19.60;68.40;;;;;;5071491;28;20095;-29
2023/09/30 02:12:36;;;;;;;3.88;2.10;;;19.70;86.50;;;;;;5071259;28;20135;-29
2023/09/30 02:15:07;;;;;;;6.82;2.50;;;19.70;86.60;;;;;;5071651;28;20049;-31
2023/09/30 02:17:33;;;;;;;5.05;2.30;;;19.90;81.40;;;;;;5071262;28;20408;-29
2023/09/30 02:20:06;;;;;;;4.75;2.30;;;19.40;86.20;;;;;;5071108;28;20143;-30
2023/09/30 02:22:33;;;;;;;3.28;1.90;;;;;;;;;;5071316;28;20059;-28
2023/09/30 02:25:00;;;;;;;4.43;1.98;;;20.10;86.80;;;;;;5071451;28;20131;-28
2023/09/30 02:27:26;;;;;;;3.40;1.90;;;19.20;86.40;;;;;;5070976;28;20128;-27
2023/09/30 02:29:54;;;;;;;3.70;2.05;;;18.60;85.60;;;;;;5071373;28;20082;-29
2023/09/30 02:32:23;;;;;;;5.22;2.17;;;19.70;68.30;;;;;;5071155;28;20067;-29
2023/09/30 02:34:51;;;;;;;3.58;2.30;;;19.80;86.20;;;;;;5071304;28;20079;-29
2023/09/30 02:37:18;;;;;;;4.63;2.38;;;19.60;76.90;;;;;;5070388;28;20490;-29
2023/09/30 02:39:45;;;;;;;3.33;1.98;;;;;;;;;;5072021;28;20123;-29
2023/09/30 02:42:12;;;;;;;4.18;1.98;;;;;;;;;;5074984;28;20456;-30
2023/09/30 02:44:39;;;;;;;3.65;1.80;;;19.70;86.50;;;;;;5074918;28;20159;-28
2023/09/30 02:47:06;;;;;;;3.75;2.10;;;;;;;;;;5074577;28;20091;-30
2023/09/30 02:49:35;;;;;;;3.25;1.88;;;19.70;68.30;;;;;;5074772;28;20123;-28
2023/09/30 02:52:01;;;;;;;3.38;1.92;;;19.80;86.50;;;;;;5074835;28;20131;-28
2023/09/30 02:54:28;;;;;;;4.93;2.17;;;;;;;;;;5074751;28;20087;-28
2023/09/30 02:56:55;;;;;;;4.13;2.20;;;20.00;86.70;;;;;;5074520;28;20219;-29
2023/09/30 02:59:22;;;;;;;3.17;1.90;;;;;;;;;;5074222;28;20504;-29
2023/09/30 03:01:49;;;;;;;3.08;1.90;;;;;;;;;;5074342;28;20382;-29
2023/09/30 03:04:19;;;;;;;3.58;1.95;;;20.20;71.00;;;;;;5074708;28;20056;-29
2023/09/30 03:06:48;;;;;;;3.80;2.10;;;19.80;86.50;;;;;;5074459;28;20048;-29
2023/09/30 03:09:15;;;;;;;3.83;2.20;;;19.90;74.10;;;;;;5074344;28;20048;-29
2023/09/30 03:11:43;;;;;;;4.65;2.08;;;19.60;85.90;;;;;;5074383;28;20444;-28
2023/09/30 03:14:10;;;;;;;4.90;2.25;;;19.90;68.30;;;;;;5073986;28;20053;-30
2023/09/30 03:16:38;;;;;;;4.13;2.28;;;19.50;85.50;;;;;;5074038;28;20513;-28
2023/09/30 03:19:08;;;;;;;3.88;2.00;;;19.60;76.30;;;;;;5074307;28;20048;-29
2023/09/30 03:21:35;;;;;;;3.75;2.05;;;19.60;69.00;;;;;;5074400;28;20090;-29
2023/09/30 03:24:04;;;;;;;3.88;2.10;;;20.00;86.00;;;;;;5073946;28;20387;-29
2023/09/30 03:26:30;;;;;;;3.63;1.88;;;20.30;86.60;;;;;;5073939;28;20048;-28
2023/09/30 03:28:57;;;;;;;3.42;1.98;;;;;;;;;;5074444;28;20136;-29
2023/09/30 03:31:25;;;;;;;2.90;1.80;;;19.50;86.00;;;;;;5073999;28;20059;-28
2023/09/30 03:33:53;;;;;;;2.72;1.73;;;20.30;82.40;;;;;;5074031;28;20049;-29
2023/09/30 03:36:20;;;;;;;3.42;1.70;;;19.90;85.90;;;;;;5073237;28;20230;-28
2023/09/30 03:38:47;;;;;;;3.25;1.98;;;;;;;;;;5073724;28;20576;-29
2023/09/30 03:41:15;;;;;;;3.33;1.83;;;19.80;86.50;;;;;;5073853;28;20564;-28
2023/09/30 03:43:42;;;;;;;3.38;1.70;;;;;;;;;;5074047;28;20052;-29
2023/09/30 03:46:09;;;;;;;2.70;1.70;;;;;;;;;;5073342;28;20583;-31
2023/09/30 03:48:39;;;;;;;3.42;1.67;;;20.70;86.40;;;;;;5073636;28;20572;-29
2023/09/30 03:51:13;;;;;;;4.00;1.90;;;20.00;67.90;;;;;;5071563;28;20051;-30
2023/09/30 03:53:40;;;;;;;4.10;2.00;;;20.10;73.00;;;;;;5073719;28;20409;-29
2023/09/30 03:56:07;;;;;;;3.75;2.00;;;20.40;86.20;;;;;;5072979;28;20131;-29
2023/09/30 03:58:36;;;;;;;3.13;1.80;;;20.00;67.90;;;;;;5073508;28;20072;-29
2023/09/30 04:01:04;;;;;;;2.78;1.80;;;19.70;85.40;;;;;;5073515;28;20052;-28
2023/09/30 04:03:32;;;;;;;3.60;2.00;;;20.50;85.10;;;;;;5073439;28;20115;-29
2023/09/30 04:05:59;;;;;;;5.15;2.78;;;20.30;86.00;;;;;;5072863;28;20052;-29
2023/09/30 04:08:26;;;;;;;3.55;1.90;;;;;;;;;;5073153;28;20119;-29
2023/09/30 04:10:53;;;;;;;4.68;1.83;;;20.70;86.20;;;;;;5073491;28;20128;-29
2023/09/30 04:13:21;;;;;;;2.78;1.83;;;;;;;;;;5073305;28;20044;-29
2023/09/30 04:15:49;;;;;;;4.28;2.13;;;21.20;86.10;;;;;;5073018;28;20071;-29
2023/09/30 04:18:16;;;;;;;3.80;1.90;;;19.10;85.00;;;;;;5072777;28;20421;-28
2023/09/30 04:20:46;;;;;;;3.15;1.90;;;;;;;;;;5073182;28;20080;-29
2023/09/30 04:23:13;;;;;;;3.53;1.80;;;19.80;83.80;;;;;;5073164;28;20056;-29
2023/09/30 04:25:40;;;;;;;4.07;2.13;;;20.00;85.40;;;;;;5073009;28;20052;-28
2023/09/30 04:28:08;;;;;;;4.18;2.00;;;19.70;75.90;;;;;;5072872;28;20060;-30
2023/09/30 04:30:35;;;;;;;3.65;1.92;;;;;;;;;;5073104;28;20048;-29
2023/09/30 04:33:04;;;;;;;3.72;1.85;;;19.90;85.70;;;;;;5072897;28;20053;-28
2023/09/30 04:35:31;;;;;;;2.90;1.77;;;;;;;;;;5072518;28;20052;-29
2023/09/30 04:38:00;;;;;;;3.33;1.65;;;19.80;85.30;;;;;;5072265;28;20056;-28
2023/09/30 04:40:27;;;;;;;3.40;1.70;;;20.10;76.00;;;;;;5072715;28;20044;-29
2023/09/30 04:42:58;;;;;;;3.42;1.90;;;19.90;85.20;;;;;;5072548;28;20127;-27
2023/09/30 04:45:26;;;;;;;3.08;1.65;;;20.10;85.80;;;;;;5072738;28;20059;-28
2023/09/30 04:47:52;;;;;;;4.72;2.00;;;20.30;85.50;;;;;;5072137;28;20044;-29
2023/09/30 04:50:21;;;;;;;2.60;1.95;;;20.10;67.80;;;;;;5072481;28;20053;-29
2023/09/30 04:52:48;;;;;;;3.85;1.92;;;;;;;;;;5072390;28;20048;-29
2023/09/30 04:55:16;;;;;;;3.08;1.75;;;21.30;86.10;;;;;;5072502;28;20118;-28
2023/09/30 04:57:44;;;;;;;2.70;1.60;;;21.20;86.10;;;;;;5072117;28;20055;-29
2023/09/30 05:00:13;;;;;;;4.65;1.83;;;21.20;86.30;;;;;;5072247;28;20139;-29
2023/09/30 05:02:40;;;;;;;2.65;1.85;;;20.30;69.50;;;;;;5071962;28;20052;-29
2023/09/30 05:05:08;;;;;;;3.53;1.80;;;19.90;85.20;;;;;;5072244;28;20048;-28
2023/09/30 05:07:36;;;;;;;3.42;1.80;;;20.80;85.70;;;;;;5072013;28;20048;-29
2023/09/30 05:10:05;;;;;;;2.70;1.58;;;20.30;85.40;;;;;;5072200;28;20128;-28
2023/09/30 05:12:32;;;;;;;3.28;1.90;;;;;;;;;;5071794;28;20517;-30
2023/09/30 05:14:59;;;;;;;3.55;1.77;;;20.10;67.70;;;;;;5072004;28;20049;-29
2023/09/30 05:17:28;;;;;;;3.15;1.60;;;;;;;;;;5072260;28;20227;-30
2023/09/30 05:19:55;;;;;;;3.13;1.80;;;21.10;86.10;;;;;;5070761;28;20410;-28
2023/09/30 05:22:23;;;;;;;2.92;1.77;;;20.50;85.60;;;;;;5071858;28;20131;-31
2023/09/30 05:24:52;;;;;;;3.47;1.70;;;20.10;67.70;;;;;;5071922;28;20063;-30
2023/09/30 05:27:18;;;;;;;4.47;2.28;;;20.30;71.40;;;;;;5071764;28;20044;-28
2023/09/30 05:29:45;;;;;;;3.33;1.83;;;20.50;85.80;;;;;;5071756;28;20124;-29
2023/09/30 05:32:13;;;;;;;4.47;1.90;;;19.90;85.20;;;;;;5071603;28;20585;-28
2023/09/30 05:34:40;;;;;;;3.33;1.52;;;20.10;86.10;;;;;;5071988;28;20082;-29
2023/09/30 05:37:07;;;;;;;3.58;1.88;;;;;;;;;;5071333;28;20044;-29
2023/09/30 05:39:33;;;;;;;2.78;1.60;;;20.30;85.30;;;;;;5071621;28;20132;-28
2023/09/30 05:42:02;;;;;;;3.42;1.73;;;20.80;85.70;;;;;;5071764;28;20135;-28
2023/09/30 05:44:30;;;;;;;3.10;1.88;;;;;;;;;;5071916;28;20053;-29
2023/09/30 05:46:57;;;;;;;3.78;2.10;;;;;;;;;;5071708;28;20074;-28
2023/09/30 05:49:23;;;;;;;2.58;1.50;;;19.40;85.30;;;;;;5071650;28;20056;-28
2023/09/30 05:51:51;;;;;;;2.85;1.75;;;20.00;85.30;;;;;;5071696;28;20053;-29
2023/09/30 05:54:17;;;;;;;3.83;1.85;;;20.10;82.70;;;;;;5071407;28;20048;-28
2023/09/30 05:56:44;;;;;;;2.78;1.70;;;20.50;86.40;;;;;;5071513;28;20584;-28
2023/09/30 05:59:13;;;;;;;4.15;2.45;;;20.20;67.60;;;;;;5071642;28;20091;-30
2023/09/30 06:01:41;;;;;;;5.28;1.98;;;;;;;;;;5071623;28;20048;-34
2023/09/30 06:04:08;;;;;;;3.88;2.00;;;20.40;85.60;;;;;;5071724;28;20098;-33
2023/09/30 06:06:35;;;;;;;3.03;1.73;;;20.20;85.00;;;;;;5071302;28;20127;-35
2023/09/30 06:09:02;;;;;;;3.05;1.88;;;19.80;69.90;;;;;;5071196;28;20136;-34
2023/09/30 06:11:29;;;;;;;3.97;1.90;;;20.20;67.60;;;;;;5071456;28;20468;-37
2023/09/30 06:13:58;;;;;;;3.78;1.90;;;;;;;;;;5071905;28;20055;-32
2023/09/30 06:16:27;;;;;;;2.95;1.77;;;20.40;68.50;;;;;;5075032;28;20045;-35
2023/09/30 06:18:54;;;;;;;3.60;2.05;;;19.80;85.00;;;;;;5075485;28;20052;-36
2023/09/30 06:21:21;;;;;;;3.30;1.80;;;20.30;85.20;;;;;;5075291;28;20475;-33
2023/09/30 06:23:48;;;;;;;4.60;2.10;;;;;;;;;;5075974;28;20059;-31
2023/09/30 06:26:16;;;;;;;4.07;1.90;;;19.90;85.30;;;;;;5075046;28;20416;-34
2023/09/30 06:28:43;;;;;;;5.10;2.00;;;21.10;84.30;;;;;;5075356;28;20044;-34
2023/09/30 06:31:10;;;;;;;3.15;1.75;;;20.40;85.20;;;;;;5075024;28;20128;-33
2023/09/30 06:33:39;;;;;;;2.80;1.80;;;20.10;71.40;;;;;;5065486;28;20053;-34
2023/09/30 06:36:09;;;;;;;3.05;1.80;;;21.10;85.90;;;;;;5065860;28;20048;-35
2023/09/30 06:38:37;;;;;;;3.78;1.90;;;19.90;84.90;;;;;;5054551;28;20056;-37
2023/09/30 06:41:04;;;;;;;2.95;1.60;;;20.60;85.70;;;;;;5054486;28;20055;-35
2023/09/30 06:43:31;;;;;;;4.20;1.77;;;;;;;;;;5058750;28;20141;-32
2023/09/30 06:45:59;;;;;;;3.92;2.00;;;;;;;;;;5065092;28;20133;-33
2023/09/30 06:48:25;;;;;;;4.05;2.00;;;20.00;85.20;;;;;;5064701;28;20444;-33
2023/09/30 06:50:54;;;;;;;4.55;2.33;;;20.40;85.50;;;;;;5063685;28;20123;-34
2023/09/30 06:53:23;;;;;;;3.00;1.95;;;;;;;;;;5064749;28;20048;-31
2023/09/30 06:55:51;;;;;;;2.97;1.70;;;;;;;;;;5065501;28;20083;-32
2023/09/30 06:58:20;;;;;;;3.97;2.17;;;19.80;76.60;;;;;;5063724;28;20387;-34
2023/09/30 07:00:48;;;;;;;3.90;1.90;;;;;;;;;;5063654;28;20127;-34
2023/09/30 07:03:16;;;;;;;3.45;1.80;;;;;;;;;;5065052;28;20040;-33
2023/09/30 07:05:42;;;;;;;3.30;1.90;;;20.00;75.50;;;;;;5064071;28;20561;-34
2023/09/30 07:08:10;;;;;;;3.92;1.90;;;20.20;67.40;;;;;;5063202;28;20151;-32
2023/09/30 07:10:38;;;;;;;3.88;2.10;;;;;;;;;;5053882;28;20594;-32
2023/09/30 07:13:06;;;;;;;4.10;1.90;;;20.10;85.10;;;;;;5054110;28;20120;-35
2023/09/30 07:15:33;;;;;;;3.20;1.92;;;19.60;85.30;;;;;;5054294;28;20049;-34
2023/09/30 07:18:00;;;;;;;4.22;2.30;;;;;;;;;;5053058;28;20553;-32
2023/09/30 07:20:27;;;;;;;4.10;1.88;;;19.00;84.90;;;;;;5053911;28;20041;-34
2023/09/30 07:22:54;;;;;;;4.50;2.20;;;20.00;83.20;;;;;;5054010;28;20052;-34
2023/09/30 07:25:22;;;;;;;3.55;1.92;;;20.60;85.90;;;;;;5053570;28;20561;-36
2023/09/30 07:27:49;;;;;;;4.13;2.30;;;19.70;84.90;;;;;;5061477;28;20128;-34
2023/09/30 07:30:16;;;;;;;4.30;2.20;;;;;;;;;;5074282;28;20708;-35
2023/09/30 07:32:43;;;;;;;3.80;1.95;;;20.30;85.40;;;;;;5074604;28;20107;-33
2023/09/30 07:35:11;;;;;;;3.70;1.80;;;20.80;68.00;;;;;;5074185;28;20139;-32
2023/09/30 07:37:37;;;;;;;3.25;1.85;;;19.90;85.20;;;;;;5073790;28;20052;-34
2023/09/30 07:40:06;;;;;;;3.25;1.90;;;19.40;85.30;;;;;;5073635;28;20143;-37
2023/09/30 07:42:34;;;;;;;3.80;1.73;;;20.50;78.10;;;;;;5074062;28;20098;-32
2023/09/30 07:45:03;;;;;;;4.43;1.80;;;;;;;;;;5073823;28;20421;-35
2023/09/30 07:47:31;;;;;;;3.88;1.90;;;20.50;85.80;;;;;;5073555;28;20047;-35
2023/09/30 07:49:57;;;;;;;5.25;2.30;;;19.30;85.10;;;;;;5073934;28;20132;-33
2023/09/30 07:52:24;;;;;;;3.60;1.73;;;20.30;85.40;;;;;;5073897;28;20561;-36
2023/09/30 07:54:51;;;;;;;3.28;1.90;;;;;;;;;;5073710;28;20079;-29
2023/09/30 07:57:18;;;;;;;4.10;1.98;;;19.70;85.40;;;;;;5064568;28;20132;-29
2023/09/30 07:59:46;;;;;;;6.00;1.85;;;20.00;67.70;;;;;;5067503;28;20492;-29
2023/09/30 08:02:12;;;;;;;3.20;1.90;;;20.40;86.00;;;;;;5053384;28;20123;-30
2023/09/30 08:04:39;;;;;;;4.10;1.77;;;20.50;71.50;;;;;;5068741;28;20127;-29
2023/09/30 08:07:06;;;;;;;3.63;2.00;;;19.80;85.50;;;;;;5073522;28;20080;-29
2023/09/30 08:09:33;;;;;;;3.22;1.92;;;21.00;85.80;;;;;;5073436;28;20150;-27
2023/09/30 08:11:59;;;;;;;4.70;2.13;;;20.10;72.30;;;;;;5072968;28;20132;-28
2023/09/30 08:14:26;;;;;;;3.28;1.80;;;18.90;85.10;;;;;;5073686;28;20099;-30
2023/09/30 08:16:54;;;;;;;3.45;1.95;;;20.00;67.90;;;;;;5073223;28;20056;-29
2023/09/30 08:19:21;;;;;;;3.78;2.00;;;20.10;85.50;;;;;;5072155;28;20132;-28
2023/09/30 08:21:48;;;;;;;4.90;1.77;;;20.30;86.60;;;;;;5059727;28;20044;-28
2023/09/30 08:24:15;;;;;;;2.58;1.73;;;20.00;85.90;;;;;;5073160;28;20782;-30
2023/09/30 08:26:42;;;;;;;4.35;2.35;;;19.80;74.70;;;;;;5072704;28;20132;-29
2023/09/30 08:29:08;;;;;;;3.30;1.98;;;19.50;85.30;;;;;;5073015;28;20572;-28
2023/09/30 08:31:35;;;;;;;3.95;1.70;;;20.50;85.90;;;;;;5072823;28;20083;-36
2023/09/30 08:34:04;;;;;;;3.88;2.00;;;20.40;73.70;;;;;;5073246;28;20085;-35
2023/09/30 08:36:31;;;;;;;4.55;1.92;;;20.10;85.50;;;;;;5072144;28;20060;-33
2023/09/30 08:38:58;;;;;;;3.35;1.77;;;20.00;85.90;;;;;;5072451;28;20128;-33
2023/09/30 08:41:29;;;;;;;3.20;1.70;;;19.60;85.30;;;;;;5072631;28;20046;-38
2023/09/30 08:43:56;;;;;;;3.30;1.80;;;;;;;;;;5073035;28;20127;-36
2023/09/30 08:46:23;;;;;;;3.90;2.00;;;20.20;82.70;;;;;;5072520;28;20124;-33
2023/09/30 08:48:49;;;;;;;3.30;1.60;;;21.10;86.40;;;;;;5072687;28;20140;-35
2023/09/30 08:51:17;;;;;;;2.30;1.58;;;21.00;86.40;;;;;;5072810;28;20143;-37
2023/09/30 08:53:44;;;;;;;4.03;2.15;;;19.70;85.30;;;;;;5072517;28;20131;-33
2023/09/30 08:56:12;;;;;;;3.70;1.75;;;21.00;78.60;;;;;;5065914;28;20132;-34
2023/09/30 08:58:39;;;;;;;3.42;1.85;;;;;;;;;;5066624;28;20084;-32
2023/09/30 09:01:09;;;;;;;3.58;2.10;;;20.20;85.60;;;;;;5072480;28;20127;-34
2023/09/30 09:03:36;;;;;;;2.15;1.50;;;20.50;74.80;;;;;;5060459;28;20045;-36
2023/09/30 09:06:03;;;;;;;3.13;2.00;;;20.20;79.50;;;;;;5063346;28;20041;-34
2023/09/30 09:08:32;;;;;;;3.17;1.70;;;19.90;85.40;;;;;;5061065;28;20516;-29
2023/09/30 09:10:59;;;;;;;2.70;1.75;;;20.20;85.60;;;;;;5052218;28;20435;-28
2023/09/30 09:13:26;;;;;;;3.80;1.80;;;20.10;85.40;;;;;;5052530;28;20049;-27
2023/09/30 09:16:07;;;;;;;3.33;1.85;;;20.00;72.30;;;;;;5068233;28;20131;-29
2023/09/30 09:18:35;;;;;;;4.22;1.70;;;20.20;85.80;;;;;;5071912;28;20062;-28
2023/09/30 09:21:12;;;;;;;4.28;2.25;;;20.10;85.60;;;;;;5072358;28;20097;-28
2023/09/30 09:23:44;;;;;;;4.00;1.83;;;21.10;85.90;;;;;;5072329;28;20131;-28
2023/09/30 09:26:11;;;;;;;3.42;1.80;;;19.50;85.40;;;;;;5068489;28;20044;-28
2023/09/30 09:28:39;;;;;;;3.25;2.15;;;20.40;85.90;;;;;;5067359;28;20060;-28
2023/09/30 09:31:21;;;;;;;3.28;1.83;;;20.10;67.80;;;;;;5060341;28;20045;-29
2023/09/30 09:33:48;;;;;;;3.78;1.85;;;;;;;;;;5062506;28;20049;-29
2023/09/30 09:36:15;;;;;;;3.38;1.77;;;19.90;85.40;;;;;;5061604;28;20124;-35
2023/09/30 09:38:48;;;;;;;2.72;1.60;;;19.70;79.50;;;;;;5059993;28;20053;-35
2023/09/30 09:41:15;;;;;;;2.60;1.60;;;19.80;85.30;;;;;;5051523;28;20497;-34
2023/09/30 09:43:42;;;;;;;3.42;1.67;;;22.20;68.90;;;;;;5051982;28;20053;-31
2023/09/30 09:46:09;;;;;;;3.47;1.70;;;20.50;85.50;;;;;;5051883;28;20045;-34
2023/09/30 09:48:36;;;;;;;2.88;1.50;;;;;;;;;;5051483;28;20136;-33
2023/09/30 09:51:03;;;;;;;2.55;1.45;;;20.20;85.70;;;;;;5060584;28;20564;-33
2023/09/30 09:53:31;;;;;;;4.38;1.63;;;19.50;85.10;;;;;;5070826;28;20056;-35
2023/09/30 09:55:59;;;;;;;2.85;1.73;;;20.10;67.70;;;;;;5070626;28;20417;-31
2023/09/30 09:58:27;;;;;;;2.28;1.50;;;;;;;;;;5070688;28;20132;-33
2023/09/30 10:00:53;;;;;;;5.20;2.63;;;19.70;84.90;;;;;;5070736;28;20044;-36
2023/09/30 10:03:20;;;;;;;2.78;1.77;;;;;;;;;;5069102;28;20048;-35
2023/09/30 10:05:48;;;;;;;4.03;1.75;;;19.50;76.90;;;;;;5058622;28;20079;-29
2023/09/30 10:08:17;;;;;;;2.90;1.60;;;19.60;85.20;;;;;;5059597;28;20124;-29
2023/09/30 10:10:44;;;;;;;3.55;1.83;;;20.50;85.70;;;;;;5062661;28;20046;-30
2023/09/30 10:13:27;;;;;;;3.13;1.55;;;20.10;67.70;;;;;;5064188;28;20139;-33
2023/09/30 10:15:54;;;;;;;2.50;1.60;;;19.80;85.20;;;;;;5051356;28;20123;-34
2023/09/30 10:18:21;;;;;;;3.03;1.73;;;;;;;;;;5063873;28;20497;-34
2023/09/30 10:20:49;;;;;;;4.03;1.50;;;20.10;85.50;;;;;;5070198;28;20473;-33
2023/09/30 10:23:22;;;;;;;3.05;1.80;;;19.70;84.60;;;;;;5070333;28;20033;-34
2023/09/30 10:25:51;;;;;;;4.93;1.80;;;;;;;;;;5070400;28;20056;-31
2023/09/30 10:28:37;;;;;;;4.00;1.67;;;19.30;75.60;;;;;;5069704;28;20497;-34
2023/09/30 10:31:15;;;;;;;2.92;1.50;;;20.30;74.10;;;;;;5070130;28;20127;-34
2023/09/30 10:34:19;;;;;;;2.88;1.55;;;19.80;80.50;;;;;;5070339;28;20062;-34
2023/09/30 10:36:46;;;;;;;2.65;1.65;;;20.20;85.40;;;;;;5069598;28;20051;-37
2023/09/30 10:39:14;;;;;;;3.20;1.80;;;20.70;70.80;;;;;;5070033;28;20052;-34
2023/09/30 10:41:50;;;;;;;4.55;1.80;;;20.00;67.50;;;;;;5070262;28;20044;-34
2023/09/30 10:44:38;;;;;;;3.00;1.65;;;20.00;67.60;;;;;;5070173;28;20045;-34
2023/09/30 10:47:35;;;;;;;2.70;1.30;;;20.00;67.60;;;;;;5070056;28;20045;-30
2023/09/30 10:50:04;;;;;;;2.55;1.50;;;19.60;79.50;;;;;;5070376;28;20057;-30
2023/09/30 10:52:31;;;;;;;3.50;1.75;;;19.70;77.50;;;;;;5070160;28;20094;-28
2023/09/30 10:55:06;;;;;;;2.67;1.50;;;20.00;67.60;;;;;;5055358;28;20068;-29
2023/09/30 10:57:33;;;;;;;4.22;1.50;;;20.10;85.60;;;;;;5050541;28;20045;-28
2023/09/30 11:00:11;;;;;;;5.03;1.60;;;20.00;67.60;;;;;;5049926;28;20564;-30
2023/09/30 11:02:50;;;;;;;3.13;1.50;;;20.00;67.50;;;;;;5053492;28;20132;-30
2023/09/30 11:05:16;;;;;;;2.05;1.23;;;19.80;70.90;;;;;;5053754;28;20049;-29
2023/09/30 11:07:43;;;;;;;2.40;1.50;;;19.60;85.30;;;;;;5053805;28;20152;-28
2023/09/30 11:10:11;;;;;;;2.40;1.40;;;20.20;67.60;;;;;;5053105;28;20497;-29
2023/09/30 11:12:38;;;;;;;2.53;1.40;;;;;;;;;;5053391;28;20041;-29
2023/09/30 11:15:09;;;;;;;2.65;1.40;;;19.30;85.30;;;;;;5053276;28;20153;-28
2023/09/30 11:17:37;;;;;;;2.53;1.50;;;20.90;86.10;;;;;;5053216;28;20048;-29
2023/09/30 11:20:06;;;;;;;2.80;1.50;;;20.00;79.00;;;;;;5053449;28;20132;-28
2023/09/30 11:22:34;;;;;;;2.80;1.42;;;;;;;;;;5052860;28;20080;-29
2023/09/30 11:25:03;;;;;;;2.50;1.50;;;;;;;;;;5058925;28;20048;-28
2023/09/30 11:27:31;;;;;;;3.38;1.80;;;20.10;85.20;;;;;;5060635;28;20052;-28
2023/09/30 11:29:58;;;;;;;2.38;1.42;;;20.10;85.50;;;;;;5061848;28;20051;-29
2023/09/30 11:32:26;;;;;;;1.83;1.23;;;;;;;;;;5055669;28;20068;-29
2023/09/30 11:34:55;;;;;;;2.80;1.35;;;19.70;73.90;;;;;;5074307;28;20049;-28
2023/09/30 11:37:22;;;;;;;2.22;1.40;;;;;;;;;;5073320;28;20131;-30
2023/09/30 11:39:51;;;;;;;2.60;1.27;;;20.10;86.30;;;;;;5073769;28;20048;-27
2023/09/30 11:42:19;;;;;;;4.35;1.60;;;20.10;73.00;;;;;;5074087;28;20148;-29
2023/09/30 11:44:47;;;;;;;5.32;1.50;;;20.60;85.90;;;;;;5073912;28;20048;-29
2023/09/30 11:47:15;;;;;;;2.95;1.30;;;20.20;76.40;;;;;;5073691;28;20493;-29
2023/09/30 11:49:44;;;;;;;3.17;1.50;;;19.90;67.50;;;;;;5073822;28;20049;-29
2023/09/30 11:52:13;;;;;;;3.05;1.30;;;20.50;85.60;;;;;;5073981;28;20076;-30
2023/09/30 11:54:43;;;;;;;2.95;1.50;;;19.90;67.50;;;;;;5073781;28;20520;-30
2023/09/30 11:57:10;;;;;;;2.75;1.40;;;20.00;85.30;;;;;;5073219;28;20087;-29
2023/09/30 11:59:37;;;;;;;2.33;1.25;;;19.10;84.80;;;;;;5073936;28;20071;-29
2023/09/30 12:02:05;;;;;;;2.42;1.30;;;;;;;;;;5073472;28;20390;-29
2023/09/30 12:04:32;;;;;;;2.33;1.38;;;;;;;;;;5073832;28;20052;-29
2023/09/30 12:06:59;;;;;;;2.17;1.27;;;20.20;85.40;;;;;;5073486;28;20128;-28
2023/09/30 12:09:28;;;;;;;3.65;1.20;;;19.90;67.50;;;;;;5073132;28;20076;-28
2023/09/30 12:11:55;;;;;;;3.25;1.40;;;18.70;79.10;;;;;;5068783;28;20100;-29
2023/09/30 12:14:22;;;;;;;1.98;1.20;;;;;;;;;;5071939;28;20541;-30
2023/09/30 12:16:50;;;;;;;3.38;1.35;;;;;;;;;;5072466;28;20186;-29
2023/09/30 12:19:17;;;;;;;4.30;1.45;;;19.90;83.80;;;;;;5072448;28;20053;-28
2023/09/30 12:21:46;;;;;;;2.45;1.25;;;;;;;;;;5072121;28;20521;-30
2023/09/30 12:24:16;;;;;;;2.10;1.45;;;19.70;68.90;;;;;;5071882;28;20057;-28
2023/09/30 12:26:47;;;;;;;3.90;1.40;;;19.90;67.40;;;;;;5071813;28;20056;-30
2023/09/30 12:29:16;;;;;;;2.45;1.13;;;20.70;67.90;;;;;;5071941;28;20088;-35
2023/09/30 12:31:44;;;;;;;2.92;1.10;;;;;;;;;;5072048;28;20758;-34
2023/09/30 12:34:11;;;;;;;2.90;1.33;;;;;;;;;;5071770;28;20048;-30
2023/09/30 12:36:38;;;;;;;5.05;1.23;;;20.30;85.30;;;;;;5071404;28;20194;-34
2023/09/30 12:39:10;;;;;;;2.72;1.42;;;20.20;76.20;;;;;;5071709;28;20631;-34
2023/09/30 12:41:37;;;;;;;2.75;1.50;;;19.80;85.00;;;;;;5071799;28;20119;-35
2023/09/30 12:44:05;;;;;;;2.25;1.23;;;20.40;86.30;;;;;;5071903;28;20076;-34
2023/09/30 12:46:34;;;;;;;2.42;1.20;;;20.20;85.50;;;;;;5071304;28;20131;-33
2023/09/30 12:49:01;;;;;;;2.42;1.40;;;19.70;69.60;;;;;;5069093;28;20056;-36
2023/09/30 12:51:28;;;;;;;2.42;1.30;;;;;;;;;;5062602;28;20052;-32
2023/09/30 12:53:56;;;;;;;2.88;1.38;;;;;;;;;;5060680;28;20136;-32
2023/09/30 12:56:23;;;;;;;2.63;1.35;;;19.90;85.90;;;;;;5071925;28;20127;-34
2023/09/30 12:58:50;;;;;;;1.67;1.20;;;20.20;76.40;;;;;;5072369;28;20482;-33
2023/09/30 13:01:18;;;;;;;2.72;1.30;;;19.90;85.00;;;;;;5072252;28;20080;-35
2023/09/30 13:03:45;;;;;;;2.33;1.20;;;19.50;84.90;;;;;;5070896;28;20049;-37
2023/09/30 13:06:12;;;;;;;2.92;1.25;;;;;;;;;;5072544;28;20131;-33
2023/09/30 13:08:39;;;;;;;4.38;1.52;;;19.70;85.30;;;;;;5072111;28;20489;-37
2023/09/30 13:11:06;;;;;;;3.17;1.25;;;19.40;84.70;;;;;;5072100;28;20080;-35
2023/09/30 13:13:33;;;;;;;2.13;1.13;;;20.30;76.10;;;;;;5072258;28;20051;-37
2023/09/30 13:16:00;;;;;;;3.58;1.40;;;;;;;;;;5072127;28;20517;-32